sensor_id;sensor_type;location;lat;lon;timestamp;pressure;altitude;pressure_sealevel;temperature;humidity
60087;BME280;45960;53.630;55.972;2022-09-03T00:00:44;100082.22;;;17.55;43.68
60087;BME280;45960;53.630;55.972;2022-09-03T00:01:50;100085.09;;;17.53;43.69
60087;BME280;45960;53.630;55.972;2022-09-03T00:02:57;100081.69;;;17.51;43.92
60087;BME280;45960;53.630;55.972;2022-09-03T00:04:04;100080.84;;;17.51;43.82
60087;BME280;45960;53.630;55.972;2022-09-03T00:06:13;100085.97;;;17.44;44.06
60087;BME280;45960;53.630;55.972;2022-09-03T00:07:29;100086.28;;;17.41;44.04
60087;BME280;45960;53.630;55.972;2022-09-03T00:08:41;100082.19;;;17.37;44.01
60087;BME280;45960;53.630;55.972;2022-09-03T00:09:46;100085.19;;;17.34;44.12
60087;BME280;45960;53.630;55.972;2022-09-03T00:10:56;100087.19;;;17.32;44.33
60087;BME280;45960;53.630;55.972;2022-09-03T00:12:09;100092.72;;;17.30;44.68
60087;BME280;45960;53.630;55.972;2022-09-03T00:13:13;100093.72;;;17.29;44.58
60087;BME280;45960;53.630;55.972;2022-09-03T00:14:20;100094.88;;;17.27;44.57
60087;BME280;45960;53.630;55.972;2022-09-03T00:15:22;100089.75;;;17.23;44.59
60087;BME280;45960;53.630;55.972;2022-09-03T00:16:25;100092.47;;;17.23;44.69
60087;BME280;45960;53.630;55.972;2022-09-03T00:17:39;100090.06;;;17.20;44.67
60087;BME280;45960;53.630;55.972;2022-09-03T00:18:45;100095.75;;;17.17;44.69
60087;BME280;45960;53.630;55.972;2022-09-03T00:19:55;100086.22;;;17.13;44.87
60087;BME280;45960;53.630;55.972;2022-09-03T00:21:00;100098.34;;;17.09;44.82
60087;BME280;45960;53.630;55.972;2022-09-03T00:22:09;100097.78;;;17.06;44.91
60087;BME280;45960;53.630;55.972;2022-09-03T00:23:22;100097.91;;;17.04;44.84
60087;BME280;45960;53.630;55.972;2022-09-03T00:24:24;100097.19;;;17.02;44.90
60087;BME280;45960;53.630;55.972;2022-09-03T00:26:34;100103.19;;;16.96;45.03
60087;BME280;45960;53.630;55.972;2022-09-03T00:27:37;100104.63;;;16.90;45.33
60087;BME280;45960;53.630;55.972;2022-09-03T00:28:44;100100.66;;;16.85;45.32
60087;BME280;45960;53.630;55.972;2022-09-03T00:29:52;100095.56;;;16.82;45.36
60087;BME280;45960;53.630;55.972;2022-09-03T00:32:17;100108.34;;;16.80;45.70
60087;BME280;45960;53.630;55.972;2022-09-03T00:33:20;100106.63;;;16.78;45.72
60087;BME280;45960;53.630;55.972;2022-09-03T00:34:29;100110.31;;;16.77;45.77
60087;BME280;45960;53.630;55.972;2022-09-03T00:35:32;100110.31;;;16.77;45.78
60087;BME280;45960;53.630;55.972;2022-09-03T00:36:40;100108.63;;;16.76;45.92
60087;BME280;45960;53.630;55.972;2022-09-03T00:37:42;100109.72;;;16.74;45.87
60087;BME280;45960;53.630;55.972;2022-09-03T00:38:43;100114.56;;;16.70;45.97
60087;BME280;45960;53.630;55.972;2022-09-03T00:39:44;100114.56;;;16.70;45.94
60087;BME280;45960;53.630;55.972;2022-09-03T00:40:52;100116.53;;;16.68;46.04
60087;BME280;45960;53.630;55.972;2022-09-03T00:42:20;100116.72;;;16.67;46.03
60087;BME280;45960;53.630;55.972;2022-09-03T00:45:31;100109.03;;;16.62;46.34
60087;BME280;45960;53.630;55.972;2022-09-03T00:46:37;100111.16;;;16.59;46.45
60087;BME280;45960;53.630;55.972;2022-09-03T00:51:20;100116.25;;;16.52;46.82
60087;BME280;45960;53.630;55.972;2022-09-03T00:55:48;100112.31;;;16.37;47.59
60087;BME280;45960;53.630;55.972;2022-09-03T00:56:58;100114.56;;;16.31;47.82
60087;BME280;45960;53.630;55.972;2022-09-03T01:00:14;100119.38;;;16.18;48.34
60087;BME280;45960;53.630;55.972;2022-09-03T01:03:42;100119.22;;;16.10;48.77
60087;BME280;45960;53.630;55.972;2022-09-03T01:04:59;100124.19;;;16.05;49.13
60087;BME280;45960;53.630;55.972;2022-09-03T01:06:12;100117.66;;;15.98;49.19
60087;BME280;45960;53.630;55.972;2022-09-03T01:13:42;100112.22;;;15.78;50.52
60087;BME280;45960;53.630;55.972;2022-09-03T01:15:51;100120.13;;;15.70;50.75
60087;BME280;45960;53.630;55.972;2022-09-03T01:18:13;100119.66;;;15.65;50.84
60087;BME280;45960;53.630;55.972;2022-09-03T01:20:41;100123.88;;;15.58;51.00
60087;BME280;45960;53.630;55.972;2022-09-03T01:22:05;100116.78;;;15.57;51.08
60087;BME280;45960;53.630;55.972;2022-09-03T01:26:01;100127.91;;;15.42;51.29
60087;BME280;45960;53.630;55.972;2022-09-03T01:27:20;100121.13;;;15.38;51.24
60087;BME280;45960;53.630;55.972;2022-09-03T01:29:34;100128.16;;;15.30;51.63
60087;BME280;45960;53.630;55.972;2022-09-03T01:30:40;100127.56;;;15.26;51.79
60087;BME280;45960;53.630;55.972;2022-09-03T01:36:08;100132.31;;;15.13;52.34
60087;BME280;45960;53.630;55.972;2022-09-03T01:37:17;100130.59;;;15.12;52.50
60087;BME280;45960;53.630;55.972;2022-09-03T01:38:26;100132.59;;;15.10;52.54
60087;BME280;45960;53.630;55.972;2022-09-03T01:43:20;100122.34;;;15.04;52.61
60087;BME280;45960;53.630;55.972;2022-09-03T01:45:45;100126.28;;;14.99;52.88
60087;BME280;45960;53.630;55.972;2022-09-03T01:46:49;100124.59;;;14.98;52.99
60087;BME280;45960;53.630;55.972;2022-09-03T01:48:17;100130.94;;;14.97;52.86
60087;BME280;45960;53.630;55.972;2022-09-03T01:50:57;100132.19;;;14.93;52.96
60087;BME280;45960;53.630;55.972;2022-09-03T01:51:50;100136.13;;;14.89;53.09
60087;BME280;45960;53.630;55.972;2022-09-03T01:52:58;100134.44;;;14.88;53.00
60087;BME280;45960;53.630;55.972;2022-09-03T01:55:32;100127.84;;;14.81;53.25
60087;BME280;45960;53.630;55.972;2022-09-03T01:58:57;100134.34;;;14.78;53.54
60087;BME280;45960;53.630;55.972;2022-09-03T02:00:10;100143.41;;;14.77;53.63
60087;BME280;45960;53.630;55.972;2022-09-03T02:01:18;100139.13;;;14.75;53.77
60087;BME280;45960;53.630;55.972;2022-09-03T02:02:22;100141.09;;;14.73;53.77
60087;BME280;45960;53.630;55.972;2022-09-03T02:03:24;100141.09;;;14.73;53.83
60087;BME280;45960;53.630;55.972;2022-09-03T02:04:32;100141.09;;;14.73;53.85
60087;BME280;45960;53.630;55.972;2022-09-03T02:05:33;100146.47;;;14.73;53.81
60087;BME280;45960;53.630;55.972;2022-09-03T02:06:35;100139.41;;;14.72;53.85
60087;BME280;45960;53.630;55.972;2022-09-03T02:07:44;100142.09;;;14.72;53.71
60087;BME280;45960;53.630;55.972;2022-09-03T02:08:45;100141.25;;;14.71;53.78
60087;BME280;45960;53.630;55.972;2022-09-03T02:09:46;100153.09;;;14.69;53.79
60087;BME280;45960;53.630;55.972;2022-09-03T02:10:51;100143.34;;;14.68;53.76
60087;BME280;45960;53.630;55.972;2022-09-03T02:12:02;100146.16;;;14.66;53.87
60087;BME280;45960;53.630;55.972;2022-09-03T02:13:05;100144.56;;;14.64;54.11
60087;BME280;45960;53.630;55.972;2022-09-03T02:14:07;100147.53;;;14.61;54.18
60087;BME280;45960;53.630;55.972;2022-09-03T02:15:12;100142.16;;;14.61;54.03
60087;BME280;45960;53.630;55.972;2022-09-03T02:16:14;100141.41;;;14.59;54.32
60087;BME280;45960;53.630;55.972;2022-09-03T02:17:16;100142.41;;;14.58;54.15
60087;BME280;45960;53.630;55.972;2022-09-03T02:18:30;100137.03;;;14.58;54.18
60087;BME280;45960;53.630;55.972;2022-09-03T02:19:33;100142.41;;;14.58;54.15
60087;BME280;45960;53.630;55.972;2022-09-03T02:20:37;100142.41;;;14.58;54.17
60087;BME280;45960;53.630;55.972;2022-09-03T02:21:38;100148.53;;;14.60;54.13
60087;BME280;45960;53.630;55.972;2022-09-03T02:22:41;100152.91;;;14.61;54.03
60087;BME280;45960;53.630;55.972;2022-09-03T02:23:42;100151.22;;;14.60;54.14
60087;BME280;45960;53.630;55.972;2022-09-03T02:24:43;100149.47;;;14.59;54.12
60087;BME280;45960;53.630;55.972;2022-09-03T02:25:46;100151.22;;;14.60;54.10
60087;BME280;45960;53.630;55.972;2022-09-03T02:26:47;100154.84;;;14.59;54.11
60087;BME280;45960;53.630;55.972;2022-09-03T02:27:49;100160.22;;;14.59;54.16
60087;BME280;45960;53.630;55.972;2022-09-03T02:29:09;100160.22;;;14.59;54.26
60087;BME280;45960;53.630;55.972;2022-09-03T02:30:10;100154.00;;;14.58;54.40
60087;BME280;45960;53.630;55.972;2022-09-03T02:31:11;100161.97;;;14.60;54.25
60087;BME280;45960;53.630;55.972;2022-09-03T02:32:12;100160.22;;;14.59;54.22
60087;BME280;45960;53.630;55.972;2022-09-03T02:33:14;100160.97;;;14.61;54.17
60087;BME280;45960;53.630;55.972;2022-09-03T02:34:15;100166.22;;;14.62;54.16
60087;BME280;45960;53.630;55.972;2022-09-03T02:35:16;100163.41;;;14.64;54.00
60087;BME280;45960;53.630;55.972;2022-09-03T02:36:19;100165.81;;;14.67;53.80
60087;BME280;45960;53.630;55.972;2022-09-03T02:37:21;100160.34;;;14.68;53.71
60087;BME280;45960;53.630;55.972;2022-09-03T02:38:23;100164.59;;;14.71;53.50
60087;BME280;45960;53.630;55.972;2022-09-03T02:39:27;100165.44;;;14.71;53.59
60087;BME280;45960;53.630;55.972;2022-09-03T02:40:28;100169.72;;;14.74;53.35
60087;BME280;45960;53.630;55.972;2022-09-03T02:41:29;100166.03;;;14.75;53.44
60087;BME280;45960;53.630;55.972;2022-09-03T02:42:31;100164.06;;;14.77;53.27
60087;BME280;45960;53.630;55.972;2022-09-03T02:43:44;100164.81;;;14.79;53.34
60087;BME280;45960;53.630;55.972;2022-09-03T02:44:48;100174.56;;;14.80;53.41
60087;BME280;45960;53.630;55.972;2022-09-03T02:45:53;100165.50;;;14.81;53.47
60087;BME280;45960;53.630;55.972;2022-09-03T02:46:57;100170.63;;;14.84;53.44
60087;BME280;45960;53.630;55.972;2022-09-03T02:47:58;100173.19;;;14.86;53.17
60087;BME280;45960;53.630;55.972;2022-09-03T02:48:59;100174.88;;;14.87;53.29
60087;BME280;45960;53.630;55.972;2022-09-03T02:50:00;100174.03;;;14.86;53.31
60087;BME280;45960;53.630;55.972;2022-09-03T02:51:01;100168.66;;;14.86;53.34
60087;BME280;45960;53.630;55.972;2022-09-03T02:52:03;100172.09;;;14.88;53.33
60087;BME280;45960;53.630;55.972;2022-09-03T02:53:09;100170.13;;;14.90;53.30
60087;BME280;45960;53.630;55.972;2022-09-03T02:54:10;100171.81;;;14.91;53.21
60087;BME280;45960;53.630;55.972;2022-09-03T02:55:11;100176.94;;;14.94;53.21
60087;BME280;45960;53.630;55.972;2022-09-03T02:56:12;100176.66;;;14.97;53.22
60087;BME280;45960;53.630;55.972;2022-09-03T02:57:14;100173.88;;;14.99;53.13
60087;BME280;45960;53.630;55.972;2022-09-03T02:58:15;100176.41;;;15.00;53.17
60087;BME280;45960;53.630;55.972;2022-09-03T02:59:16;100178.13;;;15.02;53.12
60087;BME280;45960;53.630;55.972;2022-09-03T03:00:17;100182.53;;;15.03;53.08
60087;BME280;45960;53.630;55.972;2022-09-03T03:01:20;100174.44;;;15.03;53.21
60087;BME280;45960;53.630;55.972;2022-09-03T03:02:21;100178.72;;;15.05;53.08
60087;BME280;45960;53.630;55.972;2022-09-03T03:03:21;100181.25;;;15.07;52.92
60087;BME280;45960;53.630;55.972;2022-09-03T03:04:22;100180.16;;;15.09;52.80
60087;BME280;45960;53.630;55.972;2022-09-03T03:05:25;100171.97;;;15.11;52.68
60087;BME280;45960;53.630;55.972;2022-09-03T03:06:27;100177.06;;;15.14;52.43
60087;BME280;45960;53.630;55.972;2022-09-03T03:07:31;100175.09;;;15.16;52.57
60087;BME280;45960;53.630;55.972;2022-09-03T03:08:34;100184.88;;;15.17;52.50
60087;BME280;45960;53.630;55.972;2022-09-03T03:09:34;100178.53;;;15.18;52.61
60087;BME280;45960;53.630;55.972;2022-09-03T03:10:35;100182.91;;;15.19;52.54
60087;BME280;45960;53.630;55.972;2022-09-03T03:11:37;100182.75;;;15.20;52.24
60087;BME280;45960;53.630;55.972;2022-09-03T03:12:39;100189.72;;;15.23;51.89
60087;BME280;45960;53.630;55.972;2022-09-03T03:13:40;100186.75;;;15.26;51.77
60087;BME280;45960;53.630;55.972;2022-09-03T03:14:41;100194.72;;;15.28;51.59
60087;BME280;45960;53.630;55.972;2022-09-03T03:15:42;100199.00;;;15.30;51.21
60087;BME280;45960;53.630;55.972;2022-09-03T03:16:43;100207.78;;;15.32;51.29
60087;BME280;45960;53.630;55.972;2022-09-03T03:17:44;100200.41;;;15.34;51.17
60087;BME280;45960;53.630;55.972;2022-09-03T03:18:45;100204.84;;;15.35;51.00
60087;BME280;45960;53.630;55.972;2022-09-03T03:19:46;100205.53;;;15.37;50.79
60087;BME280;45960;53.630;55.972;2022-09-03T03:20:47;100205.28;;;15.40;50.72
60087;BME280;45960;53.630;55.972;2022-09-03T03:21:48;100208.69;;;15.42;50.52
60087;BME280;45960;53.630;55.972;2022-09-03T03:22:48;100206.72;;;15.44;50.31
60087;BME280;45960;53.630;55.972;2022-09-03T03:23:50;100205.72;;;15.45;50.03
60087;BME280;45960;53.630;55.972;2022-09-03T03:24:51;100204.59;;;15.48;49.94
60087;BME280;45960;53.630;55.972;2022-09-03T03:25:53;100215.25;;;15.50;49.70
60087;BME280;45960;53.630;55.972;2022-09-03T03:27:00;100207.91;;;15.52;49.45
60087;BME280;45960;53.630;55.972;2022-09-03T03:28:01;100209.59;;;15.53;49.34
60087;BME280;45960;53.630;55.972;2022-09-03T03:29:03;100209.34;;;15.56;49.37
60087;BME280;45960;53.630;55.972;2022-09-03T03:30:04;100207.38;;;15.58;49.29
60087;BME280;45960;53.630;55.972;2022-09-03T03:31:10;100210.75;;;15.60;49.18
60087;BME280;45960;53.630;55.972;2022-09-03T03:32:11;100213.22;;;15.63;49.29
60087;BME280;45960;53.630;55.972;2022-09-03T03:33:12;100212.22;;;15.64;49.27
60087;BME280;45960;53.630;55.972;2022-09-03T03:34:13;100213.91;;;15.65;49.04
60087;BME280;45960;53.630;55.972;2022-09-03T03:35:14;100222.72;;;15.67;48.99
60087;BME280;45960;53.630;55.972;2022-09-03T03:36:15;100210.00;;;15.69;48.89
60087;BME280;45960;53.630;55.972;2022-09-03T03:37:16;100218.81;;;15.71;48.78
60087;BME280;45960;53.630;55.972;2022-09-03T03:38:17;100215.84;;;15.74;48.66
60087;BME280;45960;53.630;55.972;2022-09-03T03:39:17;100221.94;;;15.76;48.44
60087;BME280;45960;53.630;55.972;2022-09-03T03:40:19;100223.38;;;15.80;48.40
60087;BME280;45960;53.630;55.972;2022-09-03T03:41:21;100225.81;;;15.83;48.38
60087;BME280;45960;53.630;55.972;2022-09-03T03:42:23;100221.13;;;15.85;48.37
60087;BME280;45960;53.630;55.972;2022-09-03T03:43:24;100226.25;;;15.88;48.21
60087;BME280;45960;53.630;55.972;2022-09-03T03:44:25;100218.88;;;15.91;48.15
60087;BME280;45960;53.630;55.972;2022-09-03T03:45:27;100229.41;;;15.94;48.20
60087;BME280;45960;53.630;55.972;2022-09-03T03:46:29;100223.75;;;15.97;48.03
60087;BME280;45960;53.630;55.972;2022-09-03T03:47:31;100228.84;;;16.00;47.93
60087;BME280;45960;53.630;55.972;2022-09-03T03:48:32;100229.69;;;16.00;47.70
60087;BME280;45960;53.630;55.972;2022-09-03T03:49:33;100224.16;;;16.02;47.60
60087;BME280;45960;53.630;55.972;2022-09-03T03:50:34;100223.19;;;16.03;47.45
60087;BME280;45960;53.630;55.972;2022-09-03T03:51:37;100222.91;;;16.06;47.44
60087;BME280;45960;53.630;55.972;2022-09-03T03:52:39;100222.63;;;16.09;47.32
60087;BME280;45960;53.630;55.972;2022-09-03T03:53:40;100226.91;;;16.11;47.18
60087;BME280;45960;53.630;55.972;2022-09-03T03:54:40;100223.19;;;16.13;47.12
60087;BME280;45960;53.630;55.972;2022-09-03T03:55:42;100218.41;;;16.16;47.32
60087;BME280;45960;53.630;55.972;2022-09-03T03:56:43;100218.13;;;16.19;47.23
60087;BME280;45960;53.630;55.972;2022-09-03T03:57:43;100219.81;;;16.20;47.22
60087;BME280;45960;53.630;55.972;2022-09-03T03:58:46;100221.25;;;16.24;47.25
60087;BME280;45960;53.630;55.972;2022-09-03T03:59:48;100219.28;;;16.26;47.07
60087;BME280;45960;53.630;55.972;2022-09-03T04:00:49;100219.00;;;16.29;47.08
60087;BME280;45960;53.630;55.972;2022-09-03T04:01:53;100229.50;;;16.32;47.21
60087;BME280;45960;53.630;55.972;2022-09-03T04:02:54;100217.59;;;16.35;46.99
60087;BME280;45960;53.630;55.972;2022-09-03T04:03:55;100221.84;;;16.38;47.01
60087;BME280;45960;53.630;55.972;2022-09-03T04:04:56;100216.19;;;16.41;46.75
60087;BME280;45960;53.630;55.972;2022-09-03T04:05:57;100223.97;;;16.44;46.64
60087;BME280;45960;53.630;55.972;2022-09-03T04:07:00;100223.00;;;16.45;46.45
60087;BME280;45960;53.630;55.972;2022-09-03T04:08:01;100223.56;;;16.48;46.48
60087;BME280;45960;53.630;55.972;2022-09-03T04:09:02;100226.16;;;16.50;46.70
60087;BME280;45960;53.630;55.972;2022-09-03T04:10:03;100233.25;;;16.51;46.60
60087;BME280;45960;53.630;55.972;2022-09-03T04:11:04;100228.56;;;16.53;46.49
60087;BME280;45960;53.630;55.972;2022-09-03T04:12:06;100233.69;;;16.56;46.75
60087;BME280;45960;53.630;55.972;2022-09-03T04:13:08;100235.25;;;16.59;46.88
60087;BME280;45960;53.630;55.972;2022-09-03T04:14:08;100227.72;;;16.62;46.87
60087;BME280;45960;53.630;55.972;2022-09-03T04:15:09;100230.13;;;16.65;46.80
60087;BME280;45960;53.630;55.972;2022-09-03T04:16:11;100234.28;;;16.69;46.64
60087;BME280;45960;53.630;55.972;2022-09-03T04:17:12;100232.25;;;16.71;46.43
60087;BME280;45960;53.630;55.972;2022-09-03T04:18:14;100233.81;;;16.74;46.13
60087;BME280;45960;53.630;55.972;2022-09-03T04:19:15;100230.75;;;16.78;46.07
60087;BME280;45960;53.630;55.972;2022-09-03T04:20:16;100239.56;;;16.81;45.95
60087;BME280;45960;53.630;55.972;2022-09-03T04:21:18;100235.56;;;16.85;46.01
60087;BME280;45960;53.630;55.972;2022-09-03T04:22:19;100241.69;;;16.87;46.19
60087;BME280;45960;53.630;55.972;2022-09-03T04:23:20;100240.56;;;16.89;45.91
60087;BME280;45960;53.630;55.972;2022-09-03T04:24:22;100243.81;;;16.93;45.84
60087;BME280;45960;53.630;55.972;2022-09-03T04:25:23;100241.84;;;16.95;45.85
60087;BME280;45960;53.630;55.972;2022-09-03T04:26:27;100246.94;;;16.98;45.86
60087;BME280;45960;53.630;55.972;2022-09-03T04:27:31;100247.66;;;17.00;45.80
60087;BME280;45960;53.630;55.972;2022-09-03T04:28:33;100242.94;;;17.02;45.79
60087;BME280;45960;53.630;55.972;2022-09-03T04:29:36;100250.63;;;17.07;45.51
60087;BME280;45960;53.630;55.972;2022-09-03T04:30:37;100246.81;;;17.09;45.54
60087;BME280;45960;53.630;55.972;2022-09-03T04:31:38;100255.63;;;17.11;45.55
60087;BME280;45960;53.630;55.972;2022-09-03T04:32:59;100259.72;;;17.15;45.64
60087;BME280;45960;53.630;55.972;2022-09-03T04:34:00;100253.19;;;17.18;45.57
60087;BME280;45960;53.630;55.972;2022-09-03T04:35:01;100259.13;;;17.21;45.43
60087;BME280;45960;53.630;55.972;2022-09-03T04:36:06;100257.16;;;17.23;45.00
60087;BME280;45960;53.630;55.972;2022-09-03T04:37:08;100265.97;;;17.26;45.00
60087;BME280;45960;53.630;55.972;2022-09-03T04:38:09;100261.41;;;17.26;44.86
60087;BME280;45960;53.630;55.972;2022-09-03T04:39:10;100263.66;;;17.31;44.87
60087;BME280;45960;53.630;55.972;2022-09-03T04:40:11;100263.53;;;17.32;44.86
60087;BME280;45960;53.630;55.972;2022-09-03T04:41:16;100262.25;;;17.36;44.88
60087;BME280;45960;53.630;55.972;2022-09-03T04:42:17;100261.41;;;17.36;44.84
60087;BME280;45960;53.630;55.972;2022-09-03T04:43:18;100258.41;;;17.39;44.73
60087;BME280;45960;53.630;55.972;2022-09-03T04:44:19;100257.13;;;17.43;44.72
60087;BME280;45960;53.630;55.972;2022-09-03T04:45:20;100260.56;;;17.45;44.93
60087;BME280;45960;53.630;55.972;2022-09-03T04:46:21;100262.97;;;17.48;45.01
60087;BME280;45960;53.630;55.972;2022-09-03T04:47:22;100261.66;;;17.52;44.97
60087;BME280;45960;53.630;55.972;2022-09-03T04:48:24;100261.38;;;17.55;44.89
60087;BME280;45960;53.630;55.972;2022-09-03T04:49:25;100258.38;;;17.58;45.28
60087;BME280;45960;53.630;55.972;2022-09-03T04:50:26;100262.50;;;17.62;45.44
60087;BME280;45960;53.630;55.972;2022-09-03T04:51:33;100266.59;;;17.66;45.47
60087;BME280;45960;53.630;55.972;2022-09-03T04:52:34;100267.00;;;17.72;45.37
60087;BME280;45960;53.630;55.972;2022-09-03T04:53:36;100263.03;;;17.76;45.36
60087;BME280;45960;53.630;55.972;2022-09-03T04:54:37;100271.56;;;17.81;45.31
60087;BME280;45960;53.630;55.972;2022-09-03T04:55:38;100269.56;;;17.83;45.19
60087;BME280;45960;53.630;55.972;2022-09-03T04:56:39;100269.28;;;17.86;44.89
60087;BME280;45960;53.630;55.972;2022-09-03T04:57:40;100268.13;;;17.88;44.62
60087;BME280;45960;53.630;55.972;2022-09-03T04:58:42;100271.38;;;17.92;44.57
60087;BME280;45960;53.630;55.972;2022-09-03T04:59:44;100276.50;;;17.95;44.42
60087;BME280;45960;53.630;55.972;2022-09-03T05:00:45;100278.94;;;17.98;44.46
60087;BME280;45960;53.630;55.972;2022-09-03T05:01:45;100271.50;;;18.00;43.99
60087;BME280;45960;53.630;55.972;2022-09-03T05:03:05;100272.91;;;18.04;43.87
60087;BME280;45960;53.630;55.972;2022-09-03T05:04:06;100271.78;;;18.07;43.64
60087;BME280;45960;53.630;55.972;2022-09-03T05:05:07;100268.78;;;18.10;43.77
60087;BME280;45960;53.630;55.972;2022-09-03T05:06:08;100278.44;;;18.13;43.90
60087;BME280;45960;53.630;55.972;2022-09-03T05:07:10;100273.44;;;18.18;43.77
60087;BME280;45960;53.630;55.972;2022-09-03T05:08:11;100278.56;;;18.21;43.82
60087;BME280;45960;53.630;55.972;2022-09-03T05:09:12;100275.38;;;18.25;43.90
60087;BME280;45960;53.630;55.972;2022-09-03T05:10:13;100274.22;;;18.28;43.52
60087;BME280;45960;53.630;55.972;2022-09-03T05:11:21;100281.06;;;18.32;43.66
60087;BME280;45960;53.630;55.972;2022-09-03T05:12:22;100275.34;;;18.35;43.00
60087;BME280;45960;53.630;55.972;2022-09-03T05:13:23;100281.44;;;18.37;42.88
60087;BME280;45960;53.630;55.972;2022-09-03T05:14:23;100283.88;;;18.40;43.07
60087;BME280;45960;53.630;55.972;2022-09-03T05:15:24;100279.84;;;18.44;42.99
60087;BME280;45960;53.630;55.972;2022-09-03T05:16:26;100274.13;;;18.47;42.96
60087;BME280;45960;53.630;55.972;2022-09-03T05:17:28;100280.06;;;18.51;42.87
60087;BME280;45960;53.630;55.972;2022-09-03T05:18:35;100281.31;;;18.56;42.72
60087;BME280;45960;53.630;55.972;2022-09-03T05:19:36;100282.75;;;18.61;42.88
60087;BME280;45960;53.630;55.972;2022-09-03T05:20:37;100280.75;;;18.63;42.45
60087;BME280;45960;53.630;55.972;2022-09-03T05:21:38;100283.16;;;18.66;41.87
60087;BME280;45960;53.630;55.972;2022-09-03T05:22:39;100286.53;;;18.68;41.56
60087;BME280;45960;53.630;55.972;2022-09-03T05:23:40;100279.97;;;18.70;41.32
60087;BME280;45960;53.630;55.972;2022-09-03T05:24:42;100282.53;;;18.72;41.15
60087;BME280;45960;53.630;55.972;2022-09-03T05:25:43;100282.25;;;18.75;40.85
60087;BME280;45960;53.630;55.972;2022-09-03T05:26:54;100283.63;;;18.79;40.69
60087;BME280;45960;53.630;55.972;2022-09-03T05:27:55;100288.19;;;18.78;40.36
60087;BME280;45960;53.630;55.972;2022-09-03T05:28:58;100286.06;;;18.82;40.45
60087;BME280;45960;53.630;55.972;2022-09-03T05:29:59;100289.31;;;18.86;40.41
60087;BME280;45960;53.630;55.972;2022-09-03T05:31:00;100283.41;;;18.90;40.38
60087;BME280;45960;53.630;55.972;2022-09-03T05:32:01;100292.94;;;18.94;40.18
60087;BME280;45960;53.630;55.972;2022-09-03T05:33:03;100289.94;;;18.97;39.72
60087;BME280;45960;53.630;55.972;2022-09-03T05:34:05;100283.50;;;18.98;39.72
60087;BME280;45960;53.630;55.972;2022-09-03T05:35:07;100292.00;;;19.04;39.85
60087;BME280;45960;53.630;55.972;2022-09-03T05:36:09;100287.13;;;19.07;39.73
60087;BME280;45960;53.630;55.972;2022-09-03T05:37:11;100294.78;;;19.12;39.45
60087;BME280;45960;53.630;55.972;2022-09-03T05:38:12;100294.50;;;19.15;39.38
60087;BME280;45960;53.630;55.972;2022-09-03T05:39:15;100298.59;;;19.19;39.44
60087;BME280;45960;53.630;55.972;2022-09-03T05:40:16;100298.28;;;19.22;39.51
60087;BME280;45960;53.630;55.972;2022-09-03T05:41:17;100290.88;;;19.24;39.26
60087;BME280;45960;53.630;55.972;2022-09-03T05:42:17;100294.09;;;19.28;39.24
60087;BME280;45960;53.630;55.972;2022-09-03T05:43:18;100301.75;;;19.32;39.41
60087;BME280;45960;53.630;55.972;2022-09-03T05:44:20;100298.91;;;19.34;38.75
60087;BME280;45960;53.630;55.972;2022-09-03T05:45:22;100297.72;;;19.36;38.83
60087;BME280;45960;53.630;55.972;2022-09-03T05:46:28;100293.88;;;19.39;38.76
60087;BME280;45960;53.630;55.972;2022-09-03T05:47:32;100296.09;;;19.43;38.71
60087;BME280;45960;53.630;55.972;2022-09-03T05:48:33;100305.63;;;19.48;39.16
60087;BME280;45960;53.630;55.972;2022-09-03T05:49:34;100297.16;;;19.51;38.99
60087;BME280;45960;53.630;55.972;2022-09-03T05:50:36;100301.25;;;19.55;38.86
60087;BME280;45960;53.630;55.972;2022-09-03T05:51:37;100299.94;;;19.59;39.12
60087;BME280;45960;53.630;55.972;2022-09-03T05:52:41;100302.34;;;19.62;38.89
60087;BME280;45960;53.630;55.972;2022-09-03T05:53:43;100302.00;;;19.65;38.67
60087;BME280;45960;53.630;55.972;2022-09-03T05:54:45;100303.44;;;19.69;38.65
60087;BME280;45960;53.630;55.972;2022-09-03T05:55:53;100303.13;;;19.72;38.21
60087;BME280;45960;53.630;55.972;2022-09-03T05:56:54;100309.91;;;19.76;38.13
60087;BME280;45960;53.630;55.972;2022-09-03T05:57:55;100307.91;;;19.78;37.82
60087;BME280;45960;53.630;55.972;2022-09-03T05:58:56;100305.91;;;19.80;37.36
60087;BME280;45960;53.630;55.972;2022-09-03T05:59:59;100309.13;;;19.84;37.54
60087;BME280;45960;53.630;55.972;2022-09-03T06:01:13;100306.94;;;19.87;37.38
60087;BME280;45960;53.630;55.972;2022-09-03T06:02:14;100308.34;;;19.92;37.44
60087;BME280;45960;53.630;55.972;2022-09-03T06:03:16;100315.13;;;19.96;37.78
60087;BME280;45960;53.630;55.972;2022-09-03T06:04:17;100317.38;;;20.00;37.67
60087;BME280;45960;53.630;55.972;2022-09-03T06:05:18;100309.91;;;20.02;37.22
60087;BME280;45960;53.630;55.972;2022-09-03T06:06:20;100309.91;;;20.02;36.94
60087;BME280;45960;53.630;55.972;2022-09-03T06:07:31;100306.22;;;20.03;35.96
60087;BME280;45960;53.630;55.972;2022-09-03T06:08:32;100312.47;;;20.04;35.86
60087;BME280;45960;53.630;55.972;2022-09-03T06:09:33;100307.75;;;20.06;36.00
60087;BME280;45960;53.630;55.972;2022-09-03T06:10:34;100303.88;;;20.08;36.20
60087;BME280;45960;53.630;55.972;2022-09-03T06:11:36;100309.81;;;20.12;36.07
60087;BME280;45960;53.630;55.972;2022-09-03T06:12:37;100306.78;;;20.15;36.05
60087;BME280;45960;53.630;55.972;2022-09-03T06:13:38;100312.91;;;20.17;35.75